createdAt,value
2019-04-28T00:04:18.362Z,0.00
2019-04-28T00:09:23.135Z,0.20
2019-04-28T00:14:27.091Z,0.00
2019-04-28T00:19:31.171Z,0.00
2019-04-28T00:24:42.211Z,0.00
2019-04-28T00:29:46.399Z,0.25
2019-04-28T00:34:51.156Z,0.00
2019-04-28T00:39:55.191Z,0.00
2019-04-28T00:44:59.009Z,0.00
2019-04-28T00:50:02.966Z,0.00
2019-04-28T00:55:06.841Z,0.00
2019-04-28T01:00:11.557Z,0.00
2019-04-28T01:05:15.556Z,0.00
2019-04-28T01:10:21.061Z,0.00
2019-04-28T01:15:39.658Z,0.00
2019-04-28T01:20:43.848Z,0.00
2019-04-28T01:25:47.675Z,0.00
2019-04-28T01:31:13.278Z,0.00
2019-04-28T01:36:17.143Z,0.00
2019-04-28T01:41:20.922Z,0.00
2019-04-28T01:46:24.681Z,0.00
2019-04-28T01:51:30.370Z,0.00
2019-04-28T01:56:33.957Z,0.00
2019-04-28T02:01:37.789Z,0.00
2019-04-28T02:06:41.544Z,0.00
2019-04-28T02:11:45.318Z,0.00
2019-04-28T02:16:50.385Z,0.00
2019-04-28T02:22:10.584Z,0.00
2019-04-28T02:27:14.421Z,0.00
2019-04-28T02:32:21.246Z,0.00
2019-04-28T02:37:23.854Z,0.00
2019-04-28T02:42:30.657Z,0.00
2019-04-28T02:47:34.170Z,0.00
2019-04-28T02:52:56.297Z,0.00
2019-04-28T02:58:01.409Z,0.00
2019-04-28T03:03:05.501Z,0.00
2019-04-28T03:08:11.109Z,0.00
2019-04-28T03:13:14.836Z,0.00
2019-04-28T03:18:21.210Z,0.00
2019-04-28T03:23:24.142Z,0.00
2019-04-28T03:28:35.794Z,0.00
2019-04-28T03:33:47.329Z,0.00
2019-04-28T03:38:45.266Z,0.00
2019-04-28T03:43:51.277Z,0.00
2019-04-28T03:48:54.518Z,0.00
2019-04-28T03:54:00.639Z,0.00
2019-04-28T03:59:03.783Z,0.00
2019-04-28T04:04:07.541Z,0.00
2019-04-28T04:09:11.755Z,0.00
2019-04-28T04:14:34.505Z,0.00
2019-04-28T04:19:40.772Z,3.00
2019-04-28T04:24:43.823Z,4.00
2019-04-28T04:29:47.600Z,4.00
2019-04-28T04:34:51.375Z,5.00
2019-04-28T04:39:55.145Z,4.50
2019-04-28T04:45:00.523Z,5.00
2019-04-28T04:50:04.766Z,5.00
2019-04-28T04:55:11.041Z,5.20
2019-04-28T05:00:20.913Z,5.00
2019-04-28T05:05:30.339Z,6.00
2019-04-28T05:10:34.119Z,5.00
2019-04-28T05:15:37.893Z,5.80
2019-04-28T05:20:41.668Z,5.40
2019-04-28T05:25:45.440Z,6.00
2019-04-28T05:30:50.266Z,6.00
2019-04-28T05:35:54.507Z,5.00
2019-04-28T05:41:02.321Z,2.00
2019-04-28T05:46:03.949Z,2.20
2019-04-28T05:51:09.472Z,2.00
2019-04-28T05:56:20.353Z,1.40
2019-04-28T06:01:46.480Z,1.25
2019-04-28T06:06:52.167Z,1.00
2019-04-28T06:11:55.919Z,1.00
2019-04-28T06:17:00.514Z,0.00
2019-04-28T06:22:04.434Z,1.00
2019-04-28T06:27:08.193Z,1.40
2019-04-28T06:32:11.975Z,1.00
2019-04-28T06:37:15.755Z,1.50
2019-04-28T06:42:19.566Z,1.00
2019-04-28T06:47:23.303Z,1.75
2019-04-28T06:52:27.068Z,1.00
2019-04-28T06:57:30.804Z,1.00
2019-04-28T07:02:34.623Z,3.75
2019-04-28T07:07:38.398Z,4.80
2019-04-28T07:12:42.238Z,2.00
2019-04-28T07:17:46.007Z,2.00
2019-04-28T07:22:49.795Z,1.00
2019-04-28T07:27:53.578Z,1.00
2019-04-28T07:32:57.692Z,1.25
2019-04-28T07:38:01.475Z,2.00
2019-04-28T07:43:05.244Z,2.00
2019-04-28T07:48:17.190Z,1.80
2019-04-28T07:53:29.075Z,1.00
2019-04-28T07:58:32.844Z,1.00
2019-04-28T08:03:48.845Z,1.00
2019-04-28T08:08:42.185Z,1.00
2019-04-28T08:13:46.074Z,1.00
2019-04-28T08:18:49.859Z,1.00
2019-04-28T08:23:53.635Z,2.00
2019-04-28T08:28:57.586Z,1.00
2019-04-28T08:34:04.109Z,1.00
2019-04-28T08:39:07.956Z,1.00
2019-04-28T08:44:11.827Z,0.00
2019-04-28T08:49:15.695Z,0.75
2019-04-28T08:54:19.477Z,1.00
2019-04-28T08:59:23.352Z,1.00
2019-04-28T09:04:27.167Z,1.00
2019-04-28T09:09:30.921Z,0.00
2019-04-28T09:14:34.776Z,1.00
2019-04-28T09:19:38.571Z,1.00
2019-04-28T09:24:42.413Z,0.00
2019-04-28T09:29:46.216Z,1.00
2019-04-28T09:34:50.048Z,2.40
2019-04-28T09:39:59.226Z,3.00
2019-04-28T09:45:36.543Z,1.00
2019-04-28T09:50:40.292Z,1.00
2019-04-28T09:55:44.095Z,1.25
2019-04-28T10:00:47.963Z,1.00
2019-04-28T10:05:51.745Z,2.00
2019-04-28T10:10:55.555Z,1.00
2019-04-28T10:15:59.341Z,1.00
2019-04-28T10:21:03.149Z,0.75
2019-04-28T10:26:07.108Z,1.00
2019-04-28T10:31:13.313Z,1.00
2019-04-28T10:36:16.981Z,1.00
2019-04-28T10:41:36.591Z,0.80
2019-04-28T10:46:40.460Z,1.40
2019-04-28T10:51:44.355Z,2.00
2019-04-28T10:56:48.119Z,1.25
2019-04-28T11:01:51.873Z,3.00
2019-04-28T11:06:55.901Z,2.50
2019-04-28T11:12:00.129Z,2.00
2019-04-28T11:17:03.911Z,1.00
2019-04-28T11:22:07.694Z,1.00
2019-04-28T11:27:11.684Z,0.25
2019-04-28T11:32:16.677Z,1.00
2019-04-28T11:37:20.583Z,1.00
2019-04-28T11:42:24.350Z,1.00
2019-04-28T11:47:28.156Z,0.75
2019-04-28T11:52:32.232Z,1.00
2019-04-28T11:57:36.046Z,1.75
2019-04-28T12:02:39.824Z,1.40
2019-04-28T12:07:43.639Z,1.00
2019-04-28T12:13:03.407Z,1.00
2019-04-28T12:18:25.044Z,1.00
2019-04-28T12:28:45.453Z,0.60
2019-04-28T12:33:49.283Z,1.20
2019-04-28T12:38:53.077Z,1.00
2019-04-28T12:43:56.890Z,1.50
2019-04-28T12:49:04.143Z,1.00
2019-04-28T12:54:09.615Z,1.00
2019-04-28T12:59:18.713Z,1.75
2019-04-28T13:04:50.231Z,1.00
2019-04-28T13:09:54.088Z,0.25
2019-04-28T13:14:57.934Z,1.00
2019-04-28T13:20:01.748Z,1.00
2019-04-28T13:25:06.699Z,1.17
2019-04-28T13:30:10.491Z,1.00
2019-04-28T13:35:14.315Z,1.00
2019-04-28T13:40:24.778Z,1.00
2019-04-28T13:45:28.750Z,0.00
2019-04-28T13:50:37.082Z,1.00
2019-04-28T13:56:04.122Z,1.00
2019-04-28T14:01:25.592Z,1.25
2019-04-28T14:06:30.608Z,2.00
2019-04-28T14:11:34.424Z,1.00
2019-04-28T14:16:38.277Z,1.00
2019-04-28T14:21:42.087Z,1.00
2019-04-28T14:26:46.071Z,1.00
2019-04-28T14:31:49.868Z,1.20
2019-04-28T14:36:53.736Z,0.75
2019-04-28T14:41:57.550Z,1.00
2019-04-28T14:47:01.331Z,1.60
2019-04-28T14:52:05.140Z,2.00
2019-04-28T14:57:08.929Z,1.50
2019-04-28T15:02:28.903Z,1.00
2019-04-28T15:07:55.925Z,1.50
2019-04-28T15:13:00.153Z,1.20
2019-04-28T15:18:04.082Z,1.75
2019-04-28T15:23:07.880Z,1.00
2019-04-28T15:28:11.746Z,1.00
2019-04-28T15:33:15.674Z,1.75
2019-04-28T15:38:19.547Z,1.00
2019-04-28T15:43:23.400Z,1.00
2019-04-28T15:48:27.456Z,3.00
2019-04-28T15:53:32.396Z,4.00
2019-04-28T15:58:37.400Z,4.50
2019-04-28T16:03:41.209Z,4.00
2019-04-28T16:08:44.979Z,2.00
2019-04-28T16:13:48.772Z,2.00
2019-04-28T16:18:52.672Z,1.40
2019-04-28T16:23:56.459Z,1.00
2019-04-28T16:29:00.264Z,1.20
2019-04-28T16:34:04.067Z,1.50
2019-04-28T16:39:08.139Z,1.25
2019-04-28T16:44:11.964Z,2.50
2019-04-28T16:49:15.776Z,2.00
2019-04-28T16:54:19.551Z,1.25
2019-04-28T16:59:49.751Z,1.00
2019-04-28T17:04:53.535Z,1.25
2019-04-28T17:09:57.311Z,2.00
2019-04-28T17:15:01.126Z,1.50
2019-04-28T17:20:05.454Z,2.00
2019-04-28T17:25:09.264Z,1.80
2019-04-28T17:30:13.635Z,1.50
2019-04-28T17:35:17.712Z,2.00
2019-04-28T17:40:22.135Z,2.00
2019-04-28T17:45:26.174Z,2.00
2019-04-28T17:50:31.722Z,2.00
2019-04-28T17:55:35.595Z,2.50
2019-04-28T18:00:57.546Z,2.00
2019-04-28T18:06:18.160Z,1.75
2019-04-28T18:11:18.716Z,3.00
2019-04-28T18:16:50.386Z,2.00
2019-04-28T18:21:54.240Z,3.00
2019-04-28T18:26:58.127Z,3.00
2019-04-28T18:32:27.006Z,3.00
2019-04-28T18:37:49.783Z,3.00
2019-04-28T18:43:08.898Z,2.50
2019-04-28T18:48:12.733Z,3.00
2019-04-28T18:53:16.489Z,2.40
2019-04-28T18:58:20.262Z,3.00
2019-04-28T19:03:24.120Z,2.00
2019-04-28T19:08:49.354Z,2.00
2019-04-28T19:13:52.314Z,2.00
2019-04-28T19:18:58.701Z,2.60
2019-04-28T19:24:02.517Z,2.75
2019-04-28T19:29:06.379Z,2.80
2019-04-28T19:34:10.196Z,2.00
2019-04-28T19:39:14.040Z,1.50
2019-04-28T19:44:18.022Z,2.00
2019-04-28T19:49:21.980Z,1.75
2019-04-28T19:54:29.800Z,2.50
2019-04-28T19:59:50.928Z,2.00
2019-04-28T20:04:54.819Z,2.00
2019-04-28T20:09:58.637Z,2.00
2019-04-28T20:15:02.597Z,3.00
2019-04-28T20:20:06.485Z,2.00
2019-04-28T20:25:10.606Z,1.20
2019-04-28T20:30:14.379Z,2.00
2019-04-28T20:35:22.503Z,2.00
2019-04-28T20:40:35.470Z,2.00
2019-04-28T20:45:39.332Z,2.00
2019-04-28T20:50:43.132Z,3.00
2019-04-28T20:55:46.999Z,1.60
2019-04-28T21:00:50.824Z,2.00
2019-04-28T21:05:54.583Z,1.50
2019-04-28T21:10:58.376Z,1.00
2019-04-28T21:16:02.161Z,2.00
2019-04-28T21:21:06.027Z,1.60
2019-04-28T21:26:09.796Z,1.00
2019-04-28T21:31:13.672Z,1.50
2019-04-28T21:36:17.450Z,1.00
2019-04-28T21:41:21.294Z,2.00
2019-04-28T21:46:35.646Z,1.00
2019-04-28T21:51:39.444Z,1.00
2019-04-28T21:56:43.242Z,1.00
2019-04-28T22:01:47.397Z,1.20
2019-04-28T22:06:51.184Z,1.00
2019-04-28T22:11:55.075Z,1.00
2019-04-28T22:16:58.862Z,1.00
2019-04-28T22:22:02.675Z,1.00
2019-04-28T22:27:07.323Z,1.00
2019-04-28T22:32:11.216Z,1.60
2019-04-28T22:37:15.122Z,2.00
2019-04-28T22:42:18.909Z,1.00
2019-04-28T22:47:22.760Z,1.00
2019-04-28T22:52:26.770Z,1.75
2019-04-28T22:57:43.475Z,1.00
2019-04-28T23:02:47.349Z,1.00
2019-04-28T23:07:51.573Z,1.00
2019-04-28T23:12:55.401Z,1.00
2019-04-28T23:17:59.259Z,0.50
2019-04-28T23:23:05.086Z,1.00
2019-04-28T23:28:08.847Z,1.00
2019-04-28T23:33:12.668Z,1.75
2019-04-28T23:38:16.541Z,1.00
2019-04-28T23:43:21.303Z,1.00
2019-04-28T23:48:25.229Z,0.60
2019-04-28T23:53:46.818Z,1.00
2019-04-28T23:58:50.681Z,1.00
